Time;durP1;ratioP1;P1;durP2;ratioP2;P2;SDS_P1;SDS_P2;PMS_P1;PMS_P2;Temp;Humidity;BMP_temperature;BMP_pressure;BME280_temperature;BME280_humidity;BME280_pressure;Samples;Min_cycle;Max_cycle;Signal;HPM_P1;HPM_P2
2023/07/01 00:03:21;;;;;;;8.20;7.20;;;;;;;17.46;82.30;98709.55;432049;1270;140466;-62
2023/07/01 00:13:45;;;;;;;8.10;7.50;;;;;;;17.44;82.55;98709.42;431945;1268;139212;-62
2023/07/01 00:24:10;;;;;;;9.40;8.70;;;;;;;17.29;82.94;98715.98;431506;1267;139721;-62
2023/07/01 00:34:34;;;;;;;9.10;8.20;;;;;;;17.17;83.60;98714.35;431847;1270;140236;-66
2023/07/01 00:44:58;;;;;;;10.10;7.90;;;;;;;17.03;84.08;98708.04;431258;1271;140750;-63
2023/07/01 00:55:23;;;;;;;9.00;7.40;;;;;;;16.90;84.80;98701.46;431661;1268;139452;-64
2023/07/01 01:05:56;;;;;;;8.20;7.50;;;;;;;16.90;85.63;98695.62;431125;1267;139730;-64
2023/07/01 01:16:20;;;;;;;8.30;7.60;;;;;;;16.88;85.82;98684.81;431011;1270;141627;-64
2023/07/01 01:26:48;;;;;;;8.50;7.70;;;;;;;16.81;86.33;98679.77;431165;1267;140992;-64
2023/07/01 01:37:18;;;;;;;8.90;8.20;;;;;;;16.74;86.72;98672.71;431070;1273;139229;-64
2023/07/01 01:47:42;;;;;;;9.20;8.30;;;;;;;16.68;87.65;98664.31;431329;1267;139882;-65
2023/07/01 01:58:07;;;;;;;8.40;7.80;;;;;;;16.65;88.11;98652.61;431327;1272;140206;-63
2023/07/01 02:08:31;;;;;;;9.70;8.90;;;;;;;16.59;88.50;98652.13;431595;1270;140848;-63
2023/07/01 02:18:55;;;;;;;9.50;8.70;;;;;;;16.54;89.16;98649.30;431081;1267;140590;-63
2023/07/01 02:29:19;;;;;;;9.10;8.40;;;;;;;16.53;89.77;98651.84;430974;1268;140884;-63
2023/07/01 02:39:45;;;;;;;8.80;7.60;;;;;;;16.50;89.91;98648.61;432138;1267;140235;-62
2023/07/01 02:50:10;;;;;;;10.20;9.40;;;;;;;16.47;90.43;98651.92;431688;1272;139776;-62
2023/07/01 03:00:34;;;;;;;10.60;9.50;;;;;;;16.58;90.76;98650.42;431614;1268;141066;-64
2023/07/01 03:10:58;;;;;;;11.60;10.40;;;;;;;16.66;90.73;98650.70;431000;1268;139470;-63
2023/07/01 03:21:22;;;;;;;10.90;10.00;;;;;;;16.76;90.98;98646.35;431259;1273;140795;-63
2023/07/01 03:31:48;;;;;;;12.00;11.00;;;;;;;16.87;90.91;98645.58;431103;1272;140444;-63
2023/07/01 03:42:12;;;;;;;11.60;10.50;;;;;;;16.95;90.72;98645.89;431461;1273;140087;-63
2023/07/01 03:52:37;;;;;;;12.50;11.20;;;;;;;17.10;90.90;98640.98;431676;1272;139892;-63
2023/07/01 04:03:05;;;;;;;13.80;12.60;;;;;;;17.18;90.86;98645.33;430986;1273;141014;-63
2023/07/01 04:13:29;;;;;;;13.50;12.30;;;;;;;17.27;90.87;98648.65;431328;1272;140345;-64
2023/07/01 04:23:53;;;;;;;14.30;13.00;;;;;;;17.37;90.65;98646.27;431641;1273;140917;-63
2023/07/01 04:34:17;;;;;;;14.80;13.70;;;;;;;17.46;90.34;98644.25;432318;1270;141451;-63
2023/07/01 04:44:41;;;;;;;17.00;15.30;;;;;;;17.71;90.32;98640.55;431009;1272;142048;-65
2023/07/01 04:55:07;;;;;;;17.60;16.10;;;;;;;17.99;89.81;98643.54;431099;1268;140145;-63
2023/07/01 05:05:31;;;;;;;18.80;17.00;;;;;;;18.06;89.28;98650.27;431292;1272;140404;-63
2023/07/01 05:15:55;;;;;;;19.50;17.60;;;;;;;18.00;89.38;98654.57;431535;1270;140067;-64
2023/07/01 05:26:19;;;;;;;20.10;18.10;;;;;;;18.13;89.45;98653.73;431983;1273;142522;-66
2023/07/01 05:36:43;;;;;;;25.60;19.80;;;;;;;18.23;88.94;98654.73;432630;1272;140067;-64
2023/07/01 05:47:08;;;;;;;22.30;19.90;;;;;;;18.24;88.79;98658.71;431788;1272;141283;-63
2023/07/01 05:57:33;;;;;;;19.60;17.50;;;;;;;18.42;88.83;98662.45;431310;1272;139784;-63
2023/07/01 06:07:57;;;;;;;16.60;15.20;;;;;;;18.68;88.08;98669.20;431349;1273;140740;-63
2023/07/01 06:18:21;;;;;;;17.40;15.70;;;;;;;19.11;87.21;98674.02;431153;1268;141150;-63
2023/07/01 06:28:46;;;;;;;14.10;12.60;;;;;;;19.67;85.95;98674.55;431005;1272;141209;-63
2023/07/01 06:39:10;;;;;;;13.10;11.60;;;;;;;20.54;83.63;98674.09;430950;1268;140672;-63
2023/07/01 06:49:34;;;;;;;12.00;10.20;;;;;;;21.06;81.34;98675.48;430968;1272;141336;-63
2023/07/01 06:59:58;;;;;;;11.10;10.00;;;;;;;21.89;78.50;98671.72;430891;1271;140443;-64
2023/07/01 07:10:22;;;;;;;10.70;8.70;;;;;;;23.59;75.45;98663.30;431144;1272;141279;-64
2023/07/01 07:20:46;;;;;;;8.80;8.00;;;;;;;25.76;70.05;98666.11;431152;1273;139407;-65
2023/07/01 07:31:11;;;;;;;10.60;9.60;;;;;;;26.27;65.83;98655.45;432036;1273;357916;-64
2023/07/01 07:41:35;;;;;;;10.00;8.60;;;;;;;27.85;64.09;98650.60;431800;1272;140324;-64
2023/07/01 07:52:01;;;;;;;9.90;8.40;;;;;;;29.47;57.98;98648.84;431534;1272;140598;-63
2023/07/01 08:02:25;;;;;;;9.60;8.60;;;;;;;27.89;57.15;98656.41;431407;1273;139835;-63
2023/07/01 08:12:49;;;;;;;9.00;8.10;;;;;;;26.11;57.89;98657.81;431747;1273;139459;-63
2023/07/01 08:23:15;;;;;;;10.80;9.10;;;;;;;25.71;58.59;98655.45;431281;1268;139691;-63
2023/07/01 08:33:39;;;;;;;11.60;9.80;;;;;;;25.33;58.58;98658.04;432045;1272;139436;-64
2023/07/01 08:44:05;;;;;;;10.90;9.40;;;;;;;23.88;59.92;98663.67;432273;1272;138594;-63
2023/07/01 08:54:29;;;;;;;8.30;7.50;;;;;;;22.89;61.76;98666.89;431825;1272;139441;-65
2023/07/01 09:04:54;;;;;;;9.00;8.10;;;;;;;24.10;60.80;98658.23;431275;1273;139281;-64
2023/07/01 09:15:18;;;;;;;8.00;6.80;;;;;;;24.53;59.52;98650.41;431169;1273;140573;-65
2023/07/01 09:25:42;;;;;;;9.60;8.60;;;;;;;25.55;58.42;98642.61;431358;1272;139615;-64
2023/07/01 09:36:09;;;;;;;9.60;8.50;;;;;;;26.48;55.79;98637.80;430911;1273;140522;-64
2023/07/01 09:46:42;;;;;;;9.20;8.40;;;;;;;26.36;55.27;98629.29;431698;1271;139752;-64
2023/07/01 09:57:07;;;;;;;10.80;9.70;;;;;;;26.56;54.60;98621.12;431504;1270;138959;-64
2023/07/01 10:07:31;;;;;;;10.60;9.20;;;;;;;26.15;55.44;98611.79;431791;1271;138871;-65
2023/07/01 10:17:56;;;;;;;9.40;8.20;;;;;;;26.68;54.73;98607.29;431535;1271;140290;-63
2023/07/01 10:28:33;;;;;;;9.10;7.70;;;;;;;26.93;53.62;98603.58;430868;1270;139132;-63
2023/07/01 10:39:31;;;;;;;8.40;6.90;;;;;;;25.52;54.06;98605.10;431051;1272;139445;-63
2023/07/01 10:50:08;;;;;;;8.90;6.70;;;;;;;24.38;56.05;98601.68;431136;1271;140472;-64
2023/07/01 11:00:40;;;;;;;8.40;7.20;;;;;;;24.03;57.22;98586.44;431434;1268;142509;-64
2023/07/01 11:11:04;;;;;;;8.80;7.80;;;;;;;24.50;57.62;98576.27;431014;1272;139547;-64
2023/07/01 11:21:30;;;;;;;8.00;7.00;;;;;;;25.57;56.37;98570.66;430877;1272;140073;-64
2023/07/01 11:31:58;;;;;;;9.90;7.50;;;;;;;25.92;54.90;98571.09;431062;1270;138715;-64
2023/07/01 11:42:25;;;;;;;9.80;7.50;;;;;;;25.79;54.42;98556.79;430699;1270;139292;-64
2023/07/01 11:52:49;;;;;;;11.00;8.40;;;;;;;25.76;54.26;98550.45;430908;1272;139576;-65
2023/07/01 12:03:13;;;;;;;9.40;8.10;;;;;;;25.98;54.32;98547.80;430871;1272;139580;-64
2023/07/01 12:13:37;;;;;;;8.70;7.80;;;;;;;26.33;53.88;98543.27;432081;1270;138565;-64
2023/07/01 12:24:02;;;;;;;8.90;8.10;;;;;;;26.43;52.84;98540.73;431391;1268;138974;-64
2023/07/01 12:34:26;;;;;;;9.20;7.80;;;;;;;26.40;52.49;98533.02;431246;1270;139384;-66
2023/07/01 12:44:50;;;;;;;7.20;6.40;;;;;;;26.61;52.16;98517.90;431010;1272;139177;-64
2023/07/01 12:55:15;;;;;;;11.20;9.50;;;;;;;26.79;51.81;98513.23;431325;1272;139130;-64
2023/07/01 13:05:39;;;;;;;11.30;10.00;;;;;;;26.79;51.80;98509.23;431085;1270;140617;-66
2023/07/01 13:16:04;;;;;;;15.50;10.60;;;;;;;26.07;52.03;98514.44;431048;1272;139064;-65
2023/07/01 13:26:30;;;;;;;10.20;9.30;;;;;;;24.87;53.08;98511.70;431208;1272;138938;-65
2023/07/01 13:36:54;;;;;;;11.30;10.20;;;;;;;24.20;54.65;98504.55;431283;1269;139130;-65
2023/07/01 13:47:38;;;;;;;12.50;9.80;;;;;;;24.14;55.60;98500.69;431065;1272;140419;-65
2023/07/01 13:58:02;;;;;;;12.00;10.90;;;;;;;24.55;55.73;98485.61;430990;1271;140333;-65
2023/07/01 14:08:26;;;;;;;11.50;10.10;;;;;;;24.53;55.89;98481.66;431126;1268;139472;-65
2023/07/01 14:18:52;;;;;;;11.80;10.60;;;;;;;23.60;57.49;98478.31;431067;1267;139415;-65
2023/07/01 14:29:16;;;;;;;12.30;11.00;;;;;;;22.99;59.09;98468.60;431339;1271;139631;-65
2023/07/01 14:39:44;;;;;;;15.10;12.00;;;;;;;22.76;60.65;98466.42;431221;1272;138899;-64
2023/07/01 14:50:10;;;;;;;15.00;13.40;;;;;;;22.61;61.18;98456.45;431809;1272;140722;-66
2023/07/01 15:00:34;;;;;;;13.10;11.30;;;;;;;22.64;61.77;98442.52;432255;1267;140497;-65
2023/07/01 15:10:58;;;;;;;14.40;12.80;;;;;;;22.48;61.61;98416.48;431262;1272;139922;-66
2023/07/01 15:21:22;;;;;;;13.50;12.10;;;;;;;22.22;61.77;98392.05;431378;1272;140123;-66
2023/07/01 15:31:46;;;;;;;14.60;12.20;;;;;;;22.57;61.02;98391.16;431294;1272;139544;-65
2023/07/01 15:42:11;;;;;;;13.20;11.80;;;;;;;23.17;59.25;98383.24;431803;1267;139811;-64
2023/07/01 15:52:35;;;;;;;10.30;9.00;;;;;;;23.18;58.30;98374.25;431113;1267;139616;-65
2023/07/01 16:02:59;;;;;;;11.90;10.70;;;;;;;23.11;57.92;98368.66;431337;1272;139101;-66
2023/07/01 16:13:37;;;;;;;11.30;10.10;;;;;;;23.11;57.85;98358.09;431242;1268;138850;-64
2023/07/01 16:24:02;;;;;;;10.80;9.80;;;;;;;22.97;57.92;98362.56;431104;1271;139635;-65
2023/07/01 16:34:26;;;;;;;11.10;9.60;;;;;;;22.73;58.56;98361.26;431425;1268;139492;-66
2023/07/01 16:44:53;;;;;;;13.10;11.70;;;;;;;22.64;59.46;98362.46;431209;1267;139648;-65
2023/07/01 16:55:37;;;;;;;14.60;12.30;;;;;;;22.62;59.78;98367.33;431756;1267;139812;-65
2023/07/01 17:06:03;;;;;;;12.20;10.90;;;;;;;22.59;59.78;98373.04;431344;1268;139418;-68
2023/07/01 17:16:27;;;;;;;12.40;11.00;;;;;;;22.34;60.07;98380.74;431686;1268;139455;-64
2023/07/01 17:26:51;;;;;;;11.70;10.50;;;;;;;22.07;60.92;98381.13;431216;1267;140469;-66
2023/07/01 17:37:15;;;;;;;12.80;10.10;;;;;;;21.84;61.90;98372.52;431108;1267;139898;-64
2023/07/01 17:47:40;;;;;;;14.20;12.00;;;;;;;21.58;62.73;98378.16;431077;1272;139376;-64
2023/07/01 17:58:04;;;;;;;12.20;10.90;;;;;;;21.41;63.61;98375.79;431716;1271;139753;-64
2023/07/01 18:08:28;;;;;;;12.00;10.80;;;;;;;21.23;64.09;98373.37;431631;1267;139930;-66
2023/07/01 18:18:53;;;;;;;12.10;10.80;;;;;;;20.87;65.17;98371.02;431772;1267;140162;-65
2023/07/01 18:29:17;;;;;;;15.30;13.80;;;;;;;20.53;66.62;98365.96;431888;1267;140210;-65
2023/07/01 18:39:43;;;;;;;13.10;11.80;;;;;;;20.21;67.75;98366.02;432346;1272;139647;-66
2023/07/01 18:50:09;;;;;;;12.30;10.60;;;;;;;19.93;68.95;98369.13;432567;1270;139567;-65
2023/07/01 19:00:33;;;;;;;12.70;11.40;;;;;;;19.73;70.04;98370.50;432823;1267;140166;-65
2023/07/01 19:10:57;;;;;;;13.10;11.70;;;;;;;19.58;71.09;98377.17;432235;1272;140037;-65
2023/07/01 19:21:21;;;;;;;20.50;15.30;;;;;;;19.44;72.00;98374.80;430958;1270;140678;-65
2023/07/01 19:31:45;;;;;;;20.90;14.90;;;;;;;19.38;72.83;98380.30;431393;1270;166974;-64
2023/07/01 19:42:10;;;;;;;15.00;13.60;;;;;;;19.37;73.53;98384.30;431732;1270;140866;-63
2023/07/01 19:52:35;;;;;;;13.90;12.40;;;;;;;19.42;73.85;98382.99;431842;1270;139645;-64
2023/07/01 20:02:59;;;;;;;14.40;12.00;;;;;;;19.39;74.39;98377.15;431215;1267;141526;-63
2023/07/01 20:13:23;;;;;;;14.50;13.10;;;;;;;19.29;74.77;98379.73;431163;1267;139542;-64
2023/07/01 20:23:47;;;;;;;14.60;11.70;;;;;;;19.22;75.32;98385.24;430468;1270;140309;-65
2023/07/01 20:34:12;;;;;;;18.70;13.60;;;;;;;18.87;75.98;98382.89;430651;1272;140295;-64
2023/07/01 20:44:37;;;;;;;13.30;11.70;;;;;;;18.47;76.92;98382.59;430915;1267;139977;-67
2023/07/01 20:55:00;;;;;;;14.90;11.80;;;;;;;18.08;77.65;98382.61;431263;1270;139683;-67
2023/07/01 21:05:26;;;;;;;19.10;14.10;;;;;;;17.74;78.75;98386.08;430979;1267;139776;-70
2023/07/01 21:15:51;;;;;;;17.50;13.50;;;;;;;17.50;79.83;98387.66;430955;1267;140904;-68
2023/07/01 21:26:27;;;;;;;15.50;12.50;;;;;;;17.30;80.50;98381.23;430688;1268;139564;-68
2023/07/01 21:36:52;;;;;;;15.30;13.70;;;;;;;17.03;81.19;98382.71;430732;1267;139881;-68
2023/07/01 21:47:16;;;;;;;16.80;14.20;;;;;;;16.86;81.79;98381.46;430760;1272;141239;-68
2023/07/01 21:57:47;;;;;;;16.90;14.40;;;;;;;16.62;82.33;98377.29;431291;1267;139844;-70
2023/07/01 22:08:10;;;;;;;16.40;14.40;;;;;;;16.40;83.01;98378.27;431648;1268;139788;-68
2023/07/01 22:18:35;;;;;;;15.60;13.70;;;;;;;16.19;83.60;98371.33;431387;1270;139509;-68
2023/07/01 22:28:59;;;;;;;19.40;15.70;;;;;;;15.99;83.88;98363.14;431282;1272;140057;-68
2023/07/01 22:39:23;;;;;;;19.00;16.70;;;;;;;15.79;84.18;98364.34;431070;1272;140243;-68
2023/07/01 22:49:47;;;;;;;21.40;16.40;;;;;;;15.58;84.50;98356.24;430984;1268;139590;-68
2023/07/01 23:00:12;;;;;;;16.60;14.90;;;;;;;15.41;85.05;98348.19;430948;1272;139828;-68
2023/07/01 23:10:35;;;;;;;17.10;14.70;;;;;;;15.28;85.93;98344.35;430934;1272;140732;-67
2023/07/01 23:21:00;;;;;;;19.10;16.50;;;;;;;15.13;86.17;98330.07;430811;1271;140184;-67
2023/07/01 23:31:24;;;;;;;20.30;17.00;;;;;;;14.99;86.59;98328.13;431192;1273;139969;-68
2023/07/01 23:41:48;;;;;;;15.60;13.30;;;;;;;14.89;86.85;98323.37;431110;1273;140497;-68
2023/07/01 23:52:12;;;;;;;15.00;13.50;;;;;;;14.76;86.86;98318.11;431111;1270;140069;-68
